Time;durP1;ratioP1;P1;durP2;ratioP2;P2;SDS_P1;SDS_P2;PMS_P1;PMS_P2;Temp;Humidity;BMP_temperature;BMP_pressure;BME280_temperature;BME280_humidity;BME280_pressure;Samples;Min_cycle;Max_cycle;Signal;HPM_P1;HPM_P2
2021/12/23 00:00:42;;;;;;;21.85;17.08;;;-1.40;99.90;;;;;;5005029;28;20052;-61
2021/12/23 00:03:07;;;;;;;25.10;18.30;;;-1.30;99.90;;;;;;5005044;28;20080;-61
2021/12/23 00:05:33;;;;;;;24.98;17.65;;;-1.30;99.90;;;;;;4998052;28;20507;-61
2021/12/23 00:07:59;;;;;;;21.77;17.25;;;-1.40;99.90;;;;;;5000340;28;20740;-61
2021/12/23 00:10:25;;;;;;;22.58;17.70;;;-1.40;99.90;;;;;;5002480;28;20069;-61
2021/12/23 00:12:50;;;;;;;23.55;17.55;;;-1.40;99.90;;;;;;5001248;28;20220;-61
2021/12/23 00:15:36;;;;;;;23.90;18.05;;;-1.30;99.90;;;;;;5000523;28;20103;-61
2021/12/23 00:18:19;;;;;;;22.95;17.10;;;-1.30;99.90;;;;;;5000625;28;20475;-61
2021/12/23 00:23:25;;;;;;;23.88;17.08;;;-1.30;99.90;;;;;;5001286;28;20097;-59
2021/12/23 00:25:58;;;;;;;22.55;17.65;;;-1.30;99.90;;;;;;5003768;28;20065;-61
2021/12/23 00:28:24;;;;;;;22.63;17.00;;;-1.20;99.90;;;;;;4985964;28;20136;-61
2021/12/23 00:30:50;;;;;;;23.70;17.40;;;-1.20;99.90;;;;;;4999348;28;20141;-61
2021/12/23 00:33:16;;;;;;;24.23;17.75;;;-1.20;99.90;;;;;;5000033;28;20046;-61
2021/12/23 00:35:41;;;;;;;23.75;17.92;;;-1.20;99.90;;;;;;5005924;28;20053;-61
2021/12/23 00:38:16;;;;;;;20.95;16.88;;;-1.20;99.90;;;;;;5001936;28;20412;-60
2021/12/23 00:40:42;;;;;;;21.40;16.67;;;-1.20;99.90;;;;;;5005525;28;20112;-61
2021/12/23 00:43:08;;;;;;;20.60;16.50;;;-1.20;99.90;;;;;;5004883;28;20508;-60
2021/12/23 00:45:33;;;;;;;22.77;16.48;;;-1.20;99.90;;;;;;5005698;28;20049;-61
2021/12/23 00:47:59;;;;;;;22.75;16.83;;;-1.10;99.90;;;;;;5005057;28;20050;-60
2021/12/23 00:50:24;;;;;;;24.52;16.83;;;-1.10;99.90;;;;;;5004021;28;20121;-61
2021/12/23 00:52:57;;;;;;;22.90;16.70;;;-1.10;99.90;;;;;;5005827;28;20391;-61
2021/12/23 00:55:22;;;;;;;23.85;16.27;;;-1.10;99.90;;;;;;4984442;28;20489;-61
2021/12/23 00:57:48;;;;;;;22.33;17.27;;;-1.10;99.90;;;;;;4983833;28;20097;-61
2021/12/23 01:00:15;;;;;;;22.08;16.38;;;-1.00;99.90;;;;;;4983790;28;20094;-61
2021/12/23 01:02:45;;;;;;;22.23;17.05;;;-1.10;99.90;;;;;;4981569;28;20050;-58
2021/12/23 01:05:12;;;;;;;23.50;17.55;;;-1.10;99.90;;;;;;4984400;28;20054;-60
2021/12/23 01:07:37;;;;;;;20.55;16.50;;;-1.00;99.90;;;;;;4989690;28;20043;-60
2021/12/23 01:10:04;;;;;;;21.67;16.42;;;-1.00;99.90;;;;;;4993186;28;20132;-61
2021/12/23 01:12:36;;;;;;;21.20;16.17;;;-1.00;99.90;;;;;;4993039;28;20382;-60
2021/12/23 01:15:17;;;;;;;23.05;17.30;;;-1.00;99.90;;;;;;4991089;28;20465;-60
2021/12/23 01:17:55;;;;;;;23.27;16.50;;;-1.00;99.90;;;;;;4989671;28;20539;-60
2021/12/23 01:20:32;;;;;;;22.42;16.02;;;-1.00;99.90;;;;;;4993179;28;20057;-60
2021/12/23 01:23:04;;;;;;;20.45;15.80;;;-1.00;99.90;;;;;;4991623;28;20041;-61
2021/12/23 01:25:30;;;;;;;24.23;16.30;;;-1.00;99.90;;;;;;4993576;28;20492;-61
2021/12/23 01:27:56;;;;;;;21.33;16.52;;;-1.00;99.90;;;;;;4992677;28;20046;-61
2021/12/23 01:30:22;;;;;;;21.20;16.80;;;-1.00;99.90;;;;;;4991273;28;20050;-61
2021/12/23 01:32:50;;;;;;;22.60;17.23;;;-1.00;99.90;;;;;;4992768;28;20042;-61
2021/12/23 01:35:17;;;;;;;22.25;16.92;;;-1.00;99.90;;;;;;4990749;28;20488;-60
2021/12/23 01:37:43;;;;;;;24.88;17.63;;;-1.00;99.90;;;;;;4992674;28;20061;-61
2021/12/23 01:40:11;;;;;;;19.92;16.33;;;-0.90;99.90;;;;;;4990932;28;20159;-61
2021/12/23 01:42:37;;;;;;;22.52;16.65;;;-1.00;99.90;;;;;;4988702;28;20061;-61
2021/12/23 01:45:13;;;;;;;22.00;17.25;;;-1.00;99.90;;;;;;4991478;28;20038;-61
2021/12/23 01:47:39;;;;;;;20.17;16.45;;;-0.90;99.90;;;;;;4990341;28;20535;-61
2021/12/23 01:50:07;;;;;;;22.05;16.08;;;-0.90;99.90;;;;;;4988257;28;20208;-61
2021/12/23 01:52:32;;;;;;;21.10;16.63;;;-0.90;99.90;;;;;;4984896;28;20042;-61
2021/12/23 01:54:58;;;;;;;20.33;15.43;;;-1.00;99.90;;;;;;4996564;28;20050;-61
2021/12/23 01:57:26;;;;;;;20.52;15.23;;;-0.90;99.90;;;;;;5010720;28;20049;-61
2021/12/23 01:59:51;;;;;;;21.27;16.02;;;-0.90;99.90;;;;;;5010597;28;20038;-61
2021/12/23 02:02:17;;;;;;;23.50;17.20;;;-0.90;99.90;;;;;;5010016;28;20052;-61
2021/12/23 02:04:43;;;;;;;22.25;17.25;;;-0.90;99.90;;;;;;5001570;28;20203;-61
2021/12/23 02:07:08;;;;;;;21.52;15.75;;;-0.90;99.90;;;;;;5011306;28;20349;-62
2021/12/23 02:09:34;;;;;;;21.20;15.95;;;-0.90;99.90;;;;;;5009836;28;20038;-62
2021/12/23 02:11:59;;;;;;;21.73;16.15;;;-0.90;99.90;;;;;;5010735;28;20137;-61
2021/12/23 02:14:25;;;;;;;21.00;16.13;;;-0.90;99.90;;;;;;5011619;28;20046;-62
2021/12/23 02:16:50;;;;;;;21.85;17.05;;;-0.90;99.90;;;;;;5009259;28;20038;-62
2021/12/23 02:19:20;;;;;;;20.05;16.08;;;-0.90;99.90;;;;;;5010439;28;20041;-62
2021/12/23 02:21:48;;;;;;;20.23;16.40;;;-0.90;99.90;;;;;;5007856;28;20060;-62
2021/12/23 02:24:14;;;;;;;19.75;16.48;;;-0.90;99.90;;;;;;5008536;28;20053;-61
2021/12/23 02:26:41;;;;;;;18.38;15.88;;;-0.90;99.90;;;;;;5011066;28;20119;-61
2021/12/23 02:29:07;;;;;;;21.65;16.95;;;-0.90;99.90;;;;;;5007472;28;20034;-61
2021/12/23 02:31:33;;;;;;;20.65;16.63;;;-0.90;99.90;;;;;;5010002;28;20046;-61
2021/12/23 02:33:59;;;;;;;20.85;17.15;;;-0.90;99.90;;;;;;5007658;28;20044;-61
2021/12/23 02:36:26;;;;;;;20.30;17.38;;;-0.90;99.90;;;;;;5008862;28;20082;-61
2021/12/23 02:38:55;;;;;;;21.38;17.05;;;-0.90;99.90;;;;;;5011049;28;20050;-61
2021/12/23 02:41:20;;;;;;;20.60;17.08;;;-0.90;99.90;;;;;;5011362;28;20133;-61
2021/12/23 02:43:46;;;;;;;22.10;16.90;;;-0.90;99.90;;;;;;5009043;28;20122;-61
2021/12/23 02:46:13;;;;;;;22.15;17.45;;;-0.90;99.90;;;;;;5006511;28;20751;-61
2021/12/23 02:48:39;;;;;;;22.38;17.13;;;-0.90;99.90;;;;;;5007857;28;20065;-61
2021/12/23 02:51:10;;;;;;;21.90;16.55;;;-0.90;99.90;;;;;;5010257;28;20460;-61
2021/12/23 02:53:37;;;;;;;22.60;17.27;;;-0.90;99.90;;;;;;5003439;28;20064;-61
2021/12/23 02:56:06;;;;;;;21.88;17.73;;;-0.90;99.90;;;;;;5008183;28;20393;-61
2021/12/23 02:58:32;;;;;;;21.17;16.52;;;-0.90;99.90;;;;;;5004550;28;20400;-60
2021/12/23 03:01:02;;;;;;;20.33;16.33;;;-0.90;99.90;;;;;;5006665;28;20046;-61
2021/12/23 03:03:27;;;;;;;23.58;17.05;;;-0.80;99.90;;;;;;5008782;28;20054;-61
2021/12/23 03:05:55;;;;;;;19.92;16.13;;;-0.90;99.90;;;;;;5008782;28;20411;-61
2021/12/23 03:08:39;;;;;;;22.80;17.25;;;-0.80;99.90;;;;;;5010544;28;20096;-60
2021/12/23 03:11:07;;;;;;;21.55;15.90;;;-0.80;99.90;;;;;;5008427;28;20088;-61
2021/12/23 03:13:33;;;;;;;20.38;15.52;;;-0.80;99.90;;;;;;5008725;28;20057;-61
2021/12/23 03:15:59;;;;;;;20.05;16.17;;;-0.80;99.90;;;;;;5007981;28;20069;-61
2021/12/23 03:18:26;;;;;;;20.80;15.38;;;-0.80;99.90;;;;;;5010486;28;20504;-62
2021/12/23 03:20:52;;;;;;;20.38;15.48;;;-0.80;99.90;;;;;;5009715;28;20121;-61
2021/12/23 03:23:18;;;;;;;22.10;17.05;;;-0.80;99.90;;;;;;5008994;28;20042;-60
2021/12/23 03:25:43;;;;;;;21.48;16.10;;;-0.80;99.90;;;;;;5008274;28;20427;-60
2021/12/23 03:28:09;;;;;;;23.85;16.52;;;-0.90;99.90;;;;;;5009320;28;20088;-60
2021/12/23 03:30:35;;;;;;;21.48;17.35;;;-0.90;99.90;;;;;;5007812;28;20464;-60
2021/12/23 03:33:00;;;;;;;22.58;16.00;;;-0.90;99.90;;;;;;5009792;28;20056;-60
2021/12/23 03:35:26;;;;;;;21.65;16.23;;;-0.80;99.90;;;;;;5009983;28;20053;-60
2021/12/23 03:37:53;;;;;;;20.52;16.60;;;-0.90;99.90;;;;;;5009421;28;20118;-60
2021/12/23 03:40:19;;;;;;;24.02;17.15;;;-0.80;99.90;;;;;;5009486;28;20045;-60
2021/12/23 03:42:45;;;;;;;22.65;16.83;;;-0.80;99.90;;;;;;5009779;28;20046;-61
2021/12/23 03:45:11;;;;;;;20.85;17.23;;;-0.80;99.90;;;;;;5009056;28;20455;-61
2021/12/23 03:47:37;;;;;;;22.55;17.05;;;-0.80;99.90;;;;;;5010630;28;20041;-60
2021/12/23 03:50:05;;;;;;;23.17;16.33;;;-0.80;99.90;;;;;;5007534;28;20096;-60
2021/12/23 03:52:31;;;;;;;21.50;17.08;;;-0.80;99.90;;;;;;5009625;28;20472;-60
2021/12/23 03:54:56;;;;;;;22.58;16.73;;;-0.80;99.90;;;;;;5009454;28;20058;-60
2021/12/23 03:57:22;;;;;;;21.95;17.15;;;-0.80;99.90;;;;;;5009077;28;20048;-60
2021/12/23 03:59:47;;;;;;;24.75;16.13;;;-0.80;99.90;;;;;;5006021;28;20049;-60
2021/12/23 04:02:13;;;;;;;21.25;17.48;;;-0.80;99.90;;;;;;5002733;28;20056;-60
2021/12/23 04:04:39;;;;;;;21.33;16.70;;;-0.80;99.90;;;;;;5008818;28;20038;-60
2021/12/23 04:07:05;;;;;;;22.90;16.67;;;-0.70;99.90;;;;;;5009146;28;20034;-60
2021/12/23 04:09:30;;;;;;;22.38;16.77;;;-0.70;99.90;;;;;;5009170;28;20078;-60
2021/12/23 04:11:56;;;;;;;20.27;16.33;;;-0.70;99.90;;;;;;5008445;28;20042;-60
2021/12/23 04:14:21;;;;;;;23.67;16.98;;;-0.70;99.90;;;;;;5012809;28;20110;-60
2021/12/23 04:16:47;;;;;;;21.27;16.33;;;-0.70;99.90;;;;;;5012736;28;20479;-60
2021/12/23 04:19:12;;;;;;;20.35;16.02;;;-0.70;99.90;;;;;;5012815;28;20294;-60
2021/12/23 04:21:39;;;;;;;20.45;15.68;;;-0.70;99.90;;;;;;5011725;28;20041;-60
2021/12/23 04:24:05;;;;;;;21.42;16.70;;;-0.70;99.90;;;;;;5008305;28;20052;-60
2021/12/23 04:26:31;;;;;;;20.00;16.13;;;-0.60;99.90;;;;;;5013245;28;20049;-61
2021/12/23 04:28:57;;;;;;;22.45;17.48;;;-0.60;99.90;;;;;;5009692;28;20396;-61
2021/12/23 04:31:23;;;;;;;20.35;15.60;;;-0.60;99.90;;;;;;5008937;28;20484;-60
2021/12/23 04:33:50;;;;;;;21.52;16.83;;;-0.60;99.90;;;;;;5012641;28;20038;-61
2021/12/23 04:36:17;;;;;;;22.33;15.88;;;-0.60;99.90;;;;;;5012982;28;20034;-61
2021/12/23 04:38:45;;;;;;;21.92;16.95;;;-0.60;99.90;;;;;;5011089;28;20059;-60
2021/12/23 04:41:11;;;;;;;20.30;16.45;;;-0.60;99.90;;;;;;5009789;28;20381;-61
2021/12/23 04:43:38;;;;;;;22.98;16.60;;;-0.50;99.90;;;;;;5011403;28;20100;-60
2021/12/23 04:46:04;;;;;;;21.70;16.27;;;-0.50;99.90;;;;;;5011605;28;20038;-60
2021/12/23 04:48:31;;;;;;;22.40;16.92;;;-0.50;99.90;;;;;;5014252;28;20041;-61
2021/12/23 04:50:56;;;;;;;21.58;16.38;;;-0.50;99.90;;;;;;5013166;28;20056;-61
2021/12/23 04:53:22;;;;;;;21.88;16.48;;;-0.50;99.90;;;;;;5008730;28;20065;-61
2021/12/23 04:55:48;;;;;;;20.67;15.55;;;-0.50;99.90;;;;;;5010680;28;20377;-60
2021/12/23 04:58:14;;;;;;;19.85;16.35;;;-0.50;99.90;;;;;;5013099;28;20052;-61
2021/12/23 05:00:42;;;;;;;21.02;16.33;;;-0.40;99.90;;;;;;4993117;28;20064;-60
2021/12/23 05:03:08;;;;;;;21.90;16.98;;;-0.40;99.90;;;;;;5012862;28;20052;-61
2021/12/23 05:05:33;;;;;;;21.23;16.45;;;-0.40;99.90;;;;;;5009746;28;20415;-61
2021/12/23 05:07:59;;;;;;;22.33;17.27;;;-0.40;99.90;;;;;;5012553;28;20050;-61
2021/12/23 05:10:26;;;;;;;24.98;16.90;;;-0.40;99.90;;;;;;5003254;28;20046;-61
2021/12/23 05:12:51;;;;;;;22.70;17.33;;;-0.30;99.90;;;;;;5004487;28;20040;-61
2021/12/23 05:15:19;;;;;;;25.83;18.70;;;-0.30;99.90;;;;;;5002179;28;20046;-61
2021/12/23 05:17:45;;;;;;;;;;;-0.30;99.90;;;;;;5004640;28;20041;-61
2021/12/23 05:20:13;;;;;;;24.20;17.90;;;-0.30;99.90;;;;;;5002449;28;19929;-60
2021/12/23 05:22:39;;;;;;;23.20;16.98;;;-0.20;99.90;;;;;;5004649;28;20046;-61
2021/12/23 05:25:06;;;;;;;23.55;17.75;;;-0.20;99.90;;;;;;5004576;28;20618;-61
2021/12/23 05:27:32;;;;;;;24.07;17.73;;;-0.20;99.90;;;;;;5004278;28;20524;-60
2021/12/23 05:29:58;;;;;;;27.05;18.60;;;-0.20;99.90;;;;;;5005221;28;20046;-61
2021/12/23 05:32:23;;;;;;;25.10;18.73;;;-0.30;99.90;;;;;;5003803;28;20038;-60
2021/12/23 05:34:49;;;;;;;23.25;17.15;;;-0.30;99.90;;;;;;4987714;28;20480;-60
2021/12/23 05:37:15;;;;;;;24.65;18.52;;;-0.20;99.90;;;;;;5002883;28;20038;-60
2021/12/23 05:39:40;;;;;;;23.98;17.55;;;-0.30;99.90;;;;;;5003830;28;20054;-60
2021/12/23 05:42:06;;;;;;;23.25;17.55;;;-0.30;99.90;;;;;;5003822;28;20127;-60
2021/12/23 05:44:32;;;;;;;22.67;17.52;;;-0.20;99.90;;;;;;5003222;28;20497;-61
2021/12/23 05:46:57;;;;;;;24.55;18.85;;;-0.20;99.90;;;;;;5002386;28;20573;-59
2021/12/23 05:49:23;;;;;;;25.88;18.45;;;-0.20;99.90;;;;;;5003012;28;20038;-60
2021/12/23 05:51:48;;;;;;;26.98;19.30;;;-0.20;99.90;;;;;;5003939;28;20045;-60
2021/12/23 05:54:14;;;;;;;27.27;18.17;;;-0.20;99.90;;;;;;5002327;28;20062;-60
2021/12/23 05:56:39;;;;;;;25.65;18.83;;;-0.20;99.90;;;;;;5002909;28;20583;-61
2021/12/23 05:59:05;;;;;;;27.13;18.73;;;-0.20;99.90;;;;;;5003354;28;20361;-60
2021/12/23 06:01:32;;;;;;;25.00;19.02;;;-0.20;99.90;;;;;;5000984;28;20050;-60
2021/12/23 06:03:57;;;;;;;28.58;19.23;;;-0.10;99.90;;;;;;5001695;28;20068;-61
2021/12/23 06:06:23;;;;;;;25.58;18.15;;;-0.10;99.90;;;;;;5002395;28;20046;-61
2021/12/23 06:08:49;;;;;;;26.73;18.20;;;-0.20;99.90;;;;;;5006469;28;20109;-61
2021/12/23 06:11:14;;;;;;;21.73;17.20;;;-0.10;99.90;;;;;;5007018;28;20046;-60
2021/12/23 06:13:40;;;;;;;22.08;18.05;;;-0.20;99.90;;;;;;5011511;28;20050;-60
2021/12/23 06:16:05;;;;;;;24.73;18.25;;;-0.10;99.90;;;;;;5005535;28;20485;-60
2021/12/23 06:18:31;;;;;;;23.48;17.95;;;-0.10;99.90;;;;;;5012059;28;20041;-60
2021/12/23 06:20:57;;;;;;;25.17;18.13;;;-0.10;99.90;;;;;;5008658;28;20049;-60
2021/12/23 06:23:22;;;;;;;24.42;18.40;;;-0.10;99.90;;;;;;5009894;28;20057;-59
2021/12/23 06:25:48;;;;;;;25.35;18.15;;;-0.10;99.90;;;;;;5006262;28;20088;-60
2021/12/23 06:28:13;;;;;;;23.13;17.67;;;-0.20;99.90;;;;;;5006721;28;20071;-60
2021/12/23 06:30:39;;;;;;;23.48;17.83;;;-0.10;99.90;;;;;;4991764;28;20038;-61
2021/12/23 06:33:05;;;;;;;24.42;18.65;;;-0.20;99.90;;;;;;5009327;28;20535;-60
2021/12/23 06:35:32;;;;;;;24.05;18.63;;;-0.20;99.90;;;;;;5009423;28;20046;-61
2021/12/23 06:38:04;;;;;;;25.83;18.73;;;-0.10;99.90;;;;;;5010162;28;20033;-60
2021/12/23 06:40:29;;;;;;;24.00;18.42;;;-0.10;99.90;;;;;;5009634;28;20049;-60
2021/12/23 06:42:55;;;;;;;27.45;20.13;;;-0.10;99.90;;;;;;5010805;28;20050;-61
2021/12/23 06:45:20;;;;;;;28.67;18.45;;;-0.10;99.90;;;;;;5010619;28;20038;-60
2021/12/23 06:47:46;;;;;;;26.45;19.88;;;-0.20;99.90;;;;;;5010161;28;20046;-61
2021/12/23 06:50:13;;;;;;;24.45;19.15;;;-0.10;99.90;;;;;;5008408;28;20045;-61
2021/12/23 06:52:39;;;;;;;27.63;21.00;;;-0.10;99.90;;;;;;5007051;28;20046;-60
2021/12/23 06:55:07;;;;;;;26.45;20.23;;;-0.10;99.90;;;;;;5007269;28;20065;-60
2021/12/23 06:57:33;;;;;;;27.25;20.95;;;-0.10;99.90;;;;;;5008246;28;20218;-60
2021/12/23 06:59:59;;;;;;;26.08;19.27;;;-0.10;99.90;;;;;;5004989;28;20034;-59
2021/12/23 07:02:25;;;;;;;24.73;20.02;;;-0.10;99.90;;;;;;5009222;28;20484;-59
2021/12/23 07:04:51;;;;;;;26.25;20.15;;;0.00;99.90;;;;;;5009986;28;20046;-60
2021/12/23 07:10:06;;;;;;;26.17;19.67;;;0.00;99.90;;;;;;4928591;29;20152;-59
2021/12/23 07:12:32;;;;;;;25.73;19.88;;;0.00;99.90;;;;;;4928058;29;20230;-60
2021/12/23 07:14:57;;;;;;;31.30;20.73;;;0.00;99.90;;;;;;4928696;29;20514;-59
2021/12/23 07:17:23;;;;;;;29.05;20.33;;;0.00;99.90;;;;;;4928602;29;20528;-59
2021/12/23 07:19:48;;;;;;;27.52;20.17;;;0.00;99.90;;;;;;4930448;29;20564;-60
2021/12/23 07:22:14;;;;;;;25.63;20.65;;;0.10;99.90;;;;;;4931132;29;20058;-60
2021/12/23 07:24:41;;;;;;;28.90;21.00;;;0.10;99.90;;;;;;4930134;29;20079;-60
2021/12/23 07:27:08;;;;;;;28.65;21.88;;;0.10;99.90;;;;;;4926647;29;20047;-60
2021/12/23 07:29:34;;;;;;;29.37;21.40;;;0.10;99.90;;;;;;4927474;29;20379;-59
2021/12/23 07:32:02;;;;;;;30.65;22.20;;;0.10;99.90;;;;;;4927860;29;20063;-59
2021/12/23 07:34:28;;;;;;;30.52;21.45;;;0.10;99.90;;;;;;4929523;29;20048;-60
2021/12/23 07:36:54;;;;;;;28.73;21.85;;;0.10;99.90;;;;;;4930184;29;20044;-61
2021/12/23 07:39:20;;;;;;;27.08;21.02;;;0.10;99.90;;;;;;4927508;29;20044;-59
2021/12/23 07:41:46;;;;;;;28.40;21.67;;;0.10;99.90;;;;;;4930814;29;20059;-60
2021/12/23 07:44:20;;;;;;;31.83;20.80;;;0.10;99.90;;;;;;4927187;29;20067;-60
2021/12/23 07:46:46;;;;;;;30.15;22.50;;;0.10;99.90;;;;;;4957931;28;20563;-60
2021/12/23 07:49:12;;;;;;;29.85;23.05;;;0.20;99.90;;;;;;5008497;28;20073;-59
2021/12/23 07:51:39;;;;;;;32.17;22.30;;;0.20;99.90;;;;;;5009266;28;20569;-60
2021/12/23 07:54:04;;;;;;;30.17;22.70;;;0.20;99.90;;;;;;5007926;28;20495;-60
2021/12/23 07:56:30;;;;;;;28.35;22.00;;;0.20;99.90;;;;;;5006527;28;20093;-60
2021/12/23 07:58:55;;;;;;;31.92;23.35;;;0.20;99.90;;;;;;5009117;28;20125;-60
2021/12/23 08:01:21;;;;;;;31.95;23.73;;;0.20;99.90;;;;;;5006055;28;20050;-60
2021/12/23 08:03:47;;;;;;;32.72;22.85;;;0.20;99.90;;;;;;5004307;28;20050;-59
2021/12/23 08:06:13;;;;;;;31.35;22.38;;;0.20;99.90;;;;;;5009942;28;20061;-60
2021/12/23 08:08:39;;;;;;;31.13;23.20;;;0.20;99.90;;;;;;5007478;28;20041;-60
2021/12/23 08:11:06;;;;;;;35.88;24.35;;;0.20;99.90;;;;;;5009666;28;20127;-60
2021/12/23 08:13:31;;;;;;;32.78;23.40;;;0.20;99.90;;;;;;5003389;28;20133;-60
2021/12/23 08:15:58;;;;;;;34.95;24.23;;;0.20;99.90;;;;;;5006113;28;20469;-59
2021/12/23 08:18:24;;;;;;;36.10;25.02;;;0.20;99.90;;;;;;5005559;28;20412;-61
2021/12/23 08:20:50;;;;;;;33.70;25.48;;;0.30;99.90;;;;;;5004324;28;20038;-59
2021/12/23 08:23:16;;;;;;;37.70;26.15;;;0.20;99.90;;;;;;5008376;28;20042;-60
2021/12/23 08:25:41;;;;;;;36.15;25.55;;;0.30;99.90;;;;;;5005571;28;20156;-60
2021/12/23 08:28:07;;;;;;;34.67;26.85;;;0.30;99.90;;;;;;5003312;28;20540;-60
2021/12/23 08:30:34;;;;;;;36.95;27.20;;;0.30;99.90;;;;;;5007261;28;20049;-60
2021/12/23 08:33:00;;;;;;;35.27;26.23;;;0.30;99.90;;;;;;5007526;28;20503;-60
2021/12/23 08:35:25;;;;;;;38.15;26.17;;;0.30;99.90;;;;;;5002251;28;20054;-60
2021/12/23 08:37:51;;;;;;;38.70;26.55;;;0.30;99.90;;;;;;4986054;28;20043;-60
2021/12/23 08:40:21;;;;;;;38.63;27.48;;;0.30;99.90;;;;;;5008360;28;20052;-60
2021/12/23 08:42:48;;;;;;;39.05;27.30;;;0.30;99.90;;;;;;5007239;28;20050;-60
2021/12/23 08:45:14;;;;;;;43.00;27.67;;;0.30;99.90;;;;;;5009204;28;20492;-61
2021/12/23 08:47:40;;;;;;;38.90;26.98;;;0.30;99.90;;;;;;5005754;28;20042;-59
2021/12/23 08:50:08;;;;;;;40.35;27.42;;;0.30;99.90;;;;;;5005124;28;20403;-60
2021/12/23 08:52:34;;;;;;;40.15;27.70;;;0.30;99.90;;;;;;5008263;28;20057;-60
2021/12/23 08:55:00;;;;;;;39.45;28.15;;;0.30;99.90;;;;;;5005749;28;20054;-59
2021/12/23 08:57:25;;;;;;;41.38;29.55;;;0.30;99.90;;;;;;5006815;28;20069;-60
2021/12/23 08:59:51;;;;;;;39.83;27.52;;;0.30;99.90;;;;;;5006883;28;20519;-59
2021/12/23 09:02:17;;;;;;;37.22;28.23;;;0.30;99.90;;;;;;5008856;28;20050;-60
2021/12/23 09:04:42;;;;;;;38.03;26.73;;;0.30;99.90;;;;;;5011061;28;20038;-60
2021/12/23 09:07:10;;;;;;;40.47;29.02;;;0.30;99.90;;;;;;5014331;28;20041;-60
2021/12/23 09:09:36;;;;;;;40.90;28.08;;;0.30;99.90;;;;;;5014206;28;20045;-60
2021/12/23 09:12:05;;;;;;;38.53;26.63;;;0.30;99.90;;;;;;5007154;28;20164;-60
2021/12/23 09:14:32;;;;;;;42.72;29.17;;;0.30;99.90;;;;;;5004518;28;20124;-60
2021/12/23 09:16:58;;;;;;;41.30;27.60;;;0.40;99.90;;;;;;5006758;28;20061;-60
2021/12/23 09:19:23;;;;;;;42.00;28.17;;;0.30;99.90;;;;;;5005601;28;20057;-61
2021/12/23 09:21:49;;;;;;;38.97;27.95;;;0.40;99.90;;;;;;5010546;28;20094;-59
2021/12/23 09:24:15;;;;;;;41.13;27.83;;;0.40;99.90;;;;;;5008092;28;20163;-61
2021/12/23 09:26:51;;;;;;;41.00;29.40;;;0.40;99.90;;;;;;5007207;28;20046;-61
2021/12/23 09:32:40;;;;;;;42.80;28.80;;;0.40;99.90;;;;;;5010748;28;20049;-60
2021/12/23 09:34:50;;;;;;;45.45;29.20;;;0.40;99.90;;;;;;5013976;28;20168;-60
2021/12/23 09:37:17;;;;;;;49.92;30.45;;;0.40;99.90;;;;;;5010031;28;20139;-61
2021/12/23 09:39:44;;;;;;;46.15;30.45;;;0.50;99.90;;;;;;5010442;28;20567;-61
2021/12/23 09:42:11;;;;;;;48.47;31.67;;;0.50;99.90;;;;;;5014192;28;20053;-61
2021/12/23 09:44:37;;;;;;;44.72;30.13;;;0.50;99.90;;;;;;5014275;28;20042;-61
2021/12/23 09:47:03;;;;;;;45.80;29.15;;;0.60;99.90;;;;;;5011101;28;20173;-60
2021/12/23 09:49:30;;;;;;;42.85;28.17;;;0.60;99.90;;;;;;5010848;28;20085;-61
2021/12/23 09:51:56;;;;;;;44.80;31.27;;;0.60;99.90;;;;;;5006250;28;20038;-60
2021/12/23 09:54:25;;;;;;;42.65;30.58;;;0.70;99.90;;;;;;4994124;28;20066;-61
2021/12/23 09:56:53;;;;;;;47.20;30.88;;;0.70;99.90;;;;;;5003350;28;20141;-61
2021/12/23 09:59:21;;;;;;;45.15;30.70;;;0.70;99.90;;;;;;5010068;28;20034;-60
2021/12/23 10:01:46;;;;;;;;;;;0.70;99.90;;;;;;5011921;28;20133;-60
2021/12/23 10:04:12;;;;;;;42.63;27.67;;;0.70;99.90;;;;;;5013738;28;20016;-61
2021/12/23 10:06:39;;;;;;;50.08;31.08;;;0.70;99.90;;;;;;5013237;28;20046;-61
2021/12/23 10:09:05;;;;;;;45.63;30.90;;;0.70;99.90;;;;;;5011363;28;20099;-61
2021/12/23 10:12:32;;;;;;;42.83;30.23;;;0.80;99.90;;;;;;5010667;28;20481;-61
2021/12/23 10:27:02;;;;;;;46.72;31.10;;;0.80;99.90;;;;;;5012046;28;20141;-60
2021/12/23 10:31:20;;;;;;;46.25;29.55;;;0.90;99.90;;;;;;5013347;28;20054;-61
2021/12/23 10:33:50;;;;;;;42.88;28.10;;;0.80;99.90;;;;;;5012556;28;20488;-61
2021/12/23 10:39:21;;;;;;;46.88;30.83;;;0.90;99.90;;;;;;5012516;28;20120;-61
2021/12/23 10:41:46;;;;;;;47.65;32.33;;;0.90;99.90;;;;;;5000490;28;20129;-61
2021/12/23 10:44:12;;;;;;;44.28;26.95;;;0.90;99.90;;;;;;5010290;28;20129;-60
2021/12/23 10:46:40;;;;;;;47.83;31.45;;;0.90;99.90;;;;;;5008980;28;20034;-61
2021/12/23 10:49:30;;;;;;;50.50;32.65;;;0.90;99.90;;;;;;5008946;28;20441;-60
2021/12/23 10:52:13;;;;;;;46.05;31.60;;;1.00;99.90;;;;;;5011421;28;20407;-61
2021/12/23 11:00:15;;;;;;;52.20;33.65;;;1.00;99.90;;;;;;5011103;28;20092;-61
2021/12/23 11:03:00;;;;;;;54.60;33.85;;;1.00;99.90;;;;;;5012104;28;20092;-61
2021/12/23 11:05:30;;;;;;;50.08;32.88;;;1.10;99.90;;;;;;5011793;28;20042;-61
2021/12/23 11:41:13;;;;;;;48.85;32.90;;;1.30;99.90;;;;;;5012017;28;20141;-61
2021/12/23 11:43:49;;;;;;;51.20;33.63;;;1.30;99.90;;;;;;5009609;28;20053;-61
2021/12/23 11:46:24;;;;;;;48.50;33.42;;;1.30;99.90;;;;;;5010008;28;20076;-61
2021/12/23 11:48:53;;;;;;;53.08;32.95;;;1.40;99.90;;;;;;5006436;28;20469;-60
2021/12/23 11:51:29;;;;;;;51.63;33.05;;;1.40;99.90;;;;;;5011139;28;20046;-60
2021/12/23 11:53:55;;;;;;;50.72;32.08;;;1.40;99.90;;;;;;4993540;28;20057;-61
2021/12/23 11:56:22;;;;;;;50.78;32.53;;;1.40;99.90;;;;;;5010379;28;20049;-61
2021/12/23 11:58:49;;;;;;;48.35;31.90;;;1.40;99.90;;;;;;5009634;28;20042;-61
2021/12/23 12:01:22;;;;;;;50.10;32.60;;;1.40;99.90;;;;;;5010607;28;20061;-61
2021/12/23 12:04:00;;;;;;;49.00;31.85;;;1.40;99.90;;;;;;5009545;28;20179;-60
2021/12/23 12:06:48;;;;;;;50.30;32.72;;;1.30;99.90;;;;;;5009947;28;20072;-60
2021/12/23 12:09:26;;;;;;;47.60;31.67;;;1.30;99.90;;;;;;5007758;28;20050;-60
2021/12/23 12:11:58;;;;;;;47.80;31.48;;;1.30;99.90;;;;;;5011793;28;20038;-60
2021/12/23 12:14:32;;;;;;;44.60;30.75;;;1.30;99.90;;;;;;5011151;28;20144;-61
2021/12/23 12:17:26;;;;;;;48.78;32.47;;;1.30;99.90;;;;;;5011685;28;20058;-61
2021/12/23 12:20:01;;;;;;;48.25;31.80;;;1.30;99.90;;;;;;5003940;28;20125;-61
2021/12/23 12:22:45;;;;;;;47.42;31.65;;;1.30;99.90;;;;;;4992199;28;20047;-60
2021/12/23 12:25:22;;;;;;;49.53;32.45;;;1.30;99.90;;;;;;5006472;28;20049;-60
2021/12/23 12:27:48;;;;;;;48.50;31.00;;;1.30;99.90;;;;;;5011430;28;20042;-61
2021/12/23 12:30:17;;;;;;;50.53;32.70;;;1.30;99.90;;;;;;5011497;28;20053;-60
2021/12/23 12:32:43;;;;;;;54.95;33.67;;;1.30;99.90;;;;;;5011537;28;20064;-61
2021/12/23 12:35:19;;;;;;;50.10;32.30;;;1.30;99.90;;;;;;5013469;28;20049;-60
2021/12/23 12:37:46;;;;;;;46.88;31.30;;;1.30;99.90;;;;;;5015228;28;20050;-60
2021/12/23 12:40:11;;;;;;;54.85;33.95;;;1.30;99.90;;;;;;5014783;28;20046;-60
2021/12/23 12:42:43;;;;;;;48.60;32.08;;;1.30;99.90;;;;;;5014751;28;20051;-61
2021/12/23 12:45:10;;;;;;;52.20;33.00;;;1.30;99.90;;;;;;5014685;28;20050;-60
2021/12/23 12:47:48;;;;;;;53.00;33.97;;;1.30;99.90;;;;;;5015000;28;20129;-61
2021/12/23 12:50:17;;;;;;;46.78;32.72;;;1.30;99.90;;;;;;5015013;28;20530;-60
2021/12/23 12:52:47;;;;;;;45.17;31.42;;;1.30;99.90;;;;;;5014619;28;20050;-59
2021/12/23 12:55:26;;;;;;;54.83;33.92;;;1.40;99.90;;;;;;5014722;28;20042;-61
2021/12/23 12:57:56;;;;;;;54.33;34.13;;;1.40;99.90;;;;;;5014891;28;20041;-61
2021/12/23 13:00:29;;;;;;;55.58;34.40;;;1.40;99.90;;;;;;5014289;28;20054;-61
2021/12/23 13:03:04;;;;;;;50.60;32.55;;;1.40;99.90;;;;;;5014374;28;20412;-59
2021/12/23 13:05:39;;;;;;;51.55;33.45;;;1.40;99.90;;;;;;5014190;28;20443;-61
2021/12/23 13:08:14;;;;;;;49.28;32.42;;;1.40;99.90;;;;;;5013921;28;20484;-61
2021/12/23 13:10:46;;;;;;;52.67;32.25;;;1.40;99.90;;;;;;4996215;28;20054;-60
2021/12/23 13:13:34;;;;;;;54.92;33.17;;;1.40;99.90;;;;;;4994704;28;20476;-61
2021/12/23 13:16:06;;;;;;;49.53;31.15;;;1.40;99.90;;;;;;5006912;28;20038;-61
2021/12/23 13:18:32;;;;;;;52.05;32.22;;;1.30;99.90;;;;;;5014098;28;20053;-61
2021/12/23 13:21:05;;;;;;;48.47;32.08;;;1.40;99.90;;;;;;5013920;28;20045;-61
2021/12/23 13:23:33;;;;;;;55.65;34.17;;;1.30;99.90;;;;;;5014192;28;20046;-61
2021/12/23 13:26:01;;;;;;;49.50;31.63;;;1.40;99.90;;;;;;5014047;28;20057;-61
2021/12/23 13:28:29;;;;;;;50.17;31.52;;;1.40;99.90;;;;;;5014341;28;20053;-61
2021/12/23 13:30:55;;;;;;;50.72;32.50;;;1.40;99.90;;;;;;5013151;28;20038;-61
2021/12/23 13:33:21;;;;;;;50.03;31.95;;;1.30;99.90;;;;;;5013978;28;20042;-61
2021/12/23 13:35:47;;;;;;;49.53;32.22;;;1.30;99.90;;;;;;4996430;28;20053;-60
2021/12/23 13:38:37;;;;;;;43.38;30.38;;;1.30;99.90;;;;;;5013896;28;20034;-61